sensor_id;sensor_type;location;lat;lon;timestamp;pressure;altitude;pressure_sealevel;temperature;humidity
23417;BME280;11881;42.432;25.632;2022-11-13T00:00:52;100822.22;;;12.44;100.00
23417;BME280;11881;42.432;25.632;2022-11-13T00:03:18;100811.31;;;12.35;100.00
23417;BME280;11881;42.432;25.632;2022-11-13T00:05:43;100812.41;;;12.32;100.00
23417;BME280;11881;42.432;25.632;2022-11-13T00:08:09;100815.59;;;12.37;100.00
23417;BME280;11881;42.432;25.632;2022-11-13T00:10:35;100816.84;;;12.44;100.00
23417;BME280;11881;42.432;25.632;2022-11-13T00:13:00;100814.91;;;12.46;100.00
23417;BME280;11881;42.432;25.632;2022-11-13T00:15:26;100808.72;;;12.46;100.00
23417;BME280;11881;42.432;25.632;2022-11-13T00:17:52;100810.53;;;12.45;100.00
23417;BME280;11881;42.432;25.632;2022-11-13T00:20:18;100813.47;;;12.42;100.00
23417;BME280;11881;42.432;25.632;2022-11-13T00:22:44;100812.81;;;12.39;100.00
23417;BME280;11881;42.432;25.632;2022-11-13T00:25:09;100804.28;;;12.34;100.00
23417;BME280;11881;42.432;25.632;2022-11-13T00:27:35;100802.81;;;12.30;100.00
23417;BME280;11881;42.432;25.632;2022-11-13T00:30:00;100805.97;;;12.35;100.00
23417;BME280;11881;42.432;25.632;2022-11-13T00:32:26;100809.16;;;12.40;100.00
23417;BME280;11881;42.432;25.632;2022-11-13T00:34:52;100809.69;;;12.45;100.00
23417;BME280;11881;42.432;25.632;2022-11-13T00:37:17;100806.50;;;12.40;100.00
23417;BME280;11881;42.432;25.632;2022-11-13T00:39:43;100802.25;;;12.37;100.00
23417;BME280;11881;42.432;25.632;2022-11-13T00:42:08;100801.50;;;12.35;100.00
23417;BME280;11881;42.432;25.632;2022-11-13T00:44:34;100799.16;;;12.31;100.00
23417;BME280;11881;42.432;25.632;2022-11-13T00:47:00;100805.78;;;12.38;100.00
23417;BME280;11881;42.432;25.632;2022-11-13T00:49:25;100801.00;;;12.30;100.00
23417;BME280;11881;42.432;25.632;2022-11-13T00:51:51;100803.03;;;12.27;100.00
23417;BME280;11881;42.432;25.632;2022-11-13T00:54:16;100804.19;;;12.35;100.00
23417;BME280;11881;42.432;25.632;2022-11-13T00:56:42;100803.44;;;12.33;100.00
23417;BME280;11881;42.432;25.632;2022-11-13T00:59:07;100799.72;;;12.23;100.00
23417;BME280;11881;42.432;25.632;2022-11-13T01:01:33;100797.28;;;12.20;100.00
23417;BME280;11881;42.432;25.632;2022-11-13T01:03:58;100795.66;;;12.30;100.00
23417;BME280;11881;42.432;25.632;2022-11-13T01:06:25;100798.72;;;12.37;100.00
23417;BME280;11881;42.432;25.632;2022-11-13T01:08:56;100800.53;;;12.36;100.00
23417;BME280;11881;42.432;25.632;2022-11-13T01:11:26;100793.25;;;12.38;100.00
23417;BME280;11881;42.432;25.632;2022-11-13T01:13:52;100801.28;;;12.38;100.00
23417;BME280;11881;42.432;25.632;2022-11-13T01:16:21;100794.69;;;12.31;100.00
23417;BME280;11881;42.432;25.632;2022-11-13T01:18:47;100798.19;;;12.32;100.00
23417;BME280;11881;42.432;25.632;2022-11-13T01:23:40;100789.72;;;12.38;100.00
23417;BME280;11881;42.432;25.632;2022-11-13T01:26:12;100796.91;;;12.37;100.00
23417;BME280;11881;42.432;25.632;2022-11-13T01:28:39;100795.34;;;12.46;100.00
23417;BME280;11881;42.432;25.632;2022-11-13T01:31:10;100793.09;;;12.52;100.00
23417;BME280;11881;42.432;25.632;2022-11-13T01:33:36;100800.59;;;12.47;100.00
23417;BME280;11881;42.432;25.632;2022-11-13T01:36:09;100799.97;;;12.44;100.00
23417;BME280;11881;42.432;25.632;2022-11-13T01:38:34;100784.06;;;12.42;100.00
23417;BME280;11881;42.432;25.632;2022-11-13T01:41:00;100797.41;;;12.42;100.00
23417;BME280;11881;42.432;25.632;2022-11-13T01:43:31;100792.06;;;12.42;100.00
23417;BME280;11881;42.432;25.632;2022-11-13T01:48:23;100801.22;;;12.27;100.00
23417;BME280;11881;42.432;25.632;2022-11-13T01:50:51;100799.25;;;12.29;100.00
23417;BME280;11881;42.432;25.632;2022-11-13T01:53:17;100801.50;;;12.35;100.00
23417;BME280;11881;42.432;25.632;2022-11-13T01:55:43;100796.38;;;12.32;100.00
23417;BME280;11881;42.432;25.632;2022-11-13T01:58:10;100794.22;;;12.37;100.00
23417;BME280;11881;42.432;25.632;2022-11-13T02:00:36;100802.00;;;12.40;100.00
23417;BME280;11881;42.432;25.632;2022-11-13T02:03:01;100798.25;;;12.43;100.00
23417;BME280;11881;42.432;25.632;2022-11-13T02:05:27;100790.59;;;12.38;100.00
23417;BME280;11881;42.432;25.632;2022-11-13T02:07:52;100785.63;;;12.45;100.00
23417;BME280;11881;42.432;25.632;2022-11-13T02:10:18;100782.69;;;12.37;100.00
23417;BME280;11881;42.432;25.632;2022-11-13T02:12:48;100789.00;;;12.36;100.00
23417;BME280;11881;42.432;25.632;2022-11-13T02:15:14;100791.88;;;12.33;100.00
23417;BME280;11881;42.432;25.632;2022-11-13T02:17:44;100787.97;;;12.25;100.00
23417;BME280;11881;42.432;25.632;2022-11-13T02:20:11;100784.19;;;12.28;100.00
23417;BME280;11881;42.432;25.632;2022-11-13T02:22:58;100793.50;;;12.35;100.00
23417;BME280;11881;42.432;25.632;2022-11-13T02:25:27;100786.41;;;12.34;100.00
23417;BME280;11881;42.432;25.632;2022-11-13T02:27:54;100784.25;;;12.39;100.00
23417;BME280;11881;42.432;25.632;2022-11-13T02:30:23;100792.06;;;12.42;100.00
23417;BME280;11881;42.432;25.632;2022-11-13T02:32:51;100787.44;;;12.44;100.00
23417;BME280;11881;42.432;25.632;2022-11-13T02:35:32;100786.41;;;12.34;100.00
23417;BME280;11881;42.432;25.632;2022-11-13T02:38:01;100786.94;;;12.39;100.00
23417;BME280;11881;42.432;25.632;2022-11-13T02:40:27;100778.53;;;12.33;100.00
23417;BME280;11881;42.432;25.632;2022-11-13T02:42:53;100789.09;;;12.34;100.00
23417;BME280;11881;42.432;25.632;2022-11-13T02:45:19;100784.84;;;12.32;100.00
23417;BME280;11881;42.432;25.632;2022-11-13T02:47:44;100784.19;;;12.28;100.00
23417;BME280;11881;42.432;25.632;2022-11-13T02:50:11;100796.50;;;12.31;100.00
23417;BME280;11881;42.432;25.632;2022-11-13T02:52:37;100783.03;;;12.32;100.00
23417;BME280;11881;42.432;25.632;2022-11-13T02:55:03;100789.53;;;12.41;100.00
23417;BME280;11881;42.432;25.632;2022-11-13T02:57:30;100789.16;;;12.45;100.00
23417;BME280;11881;42.432;25.632;2022-11-13T02:59:55;100779.44;;;12.44;100.00
23417;BME280;11881;42.432;25.632;2022-11-13T03:02:21;100787.19;;;12.36;100.00
23417;BME280;11881;42.432;25.632;2022-11-13T03:04:46;100782.97;;;12.45;100.00
23417;BME280;11881;42.432;25.632;2022-11-13T03:07:12;100787.13;;;12.49;100.00
23417;BME280;11881;42.432;25.632;2022-11-13T03:09:39;100788.75;;;12.39;100.00
23417;BME280;11881;42.432;25.632;2022-11-13T03:12:05;100786.22;;;12.37;100.00
23417;BME280;11881;42.432;25.632;2022-11-13T03:14:31;100780.63;;;12.40;100.00
23417;BME280;11881;42.432;25.632;2022-11-13T03:16:57;100786.84;;;12.41;100.00
23417;BME280;11881;42.432;25.632;2022-11-13T03:19:22;100781.03;;;12.47;100.00
23417;BME280;11881;42.432;25.632;2022-11-13T03:21:48;100777.41;;;12.48;100.00
23417;BME280;11881;42.432;25.632;2022-11-13T03:24:13;100783.47;;;12.50;100.00
23417;BME280;11881;42.432;25.632;2022-11-13T03:26:38;100781.31;;;12.55;100.00
23417;BME280;11881;42.432;25.632;2022-11-13T03:29:04;100773.75;;;12.49;100.00
23417;BME280;11881;42.432;25.632;2022-11-13T03:31:29;100778.38;;;12.47;100.00
23417;BME280;11881;42.432;25.632;2022-11-13T03:33:55;100785.25;;;12.38;100.00
23417;BME280;11881;42.432;25.632;2022-11-13T03:36:20;100770.16;;;12.37;100.00
23417;BME280;11881;42.432;25.632;2022-11-13T03:38:46;100776.25;;;12.39;100.00
23417;BME280;11881;42.432;25.632;2022-11-13T03:41:11;100781.72;;;12.38;100.00
23417;BME280;11881;42.432;25.632;2022-11-13T03:43:39;100778.06;;;12.39;100.00
23417;BME280;11881;42.432;25.632;2022-11-13T03:46:05;100775.50;;;12.37;100.00
23417;BME280;11881;42.432;25.632;2022-11-13T03:48:30;100775.41;;;12.39;100.00
23417;BME280;11881;42.432;25.632;2022-11-13T03:50:56;100777.84;;;12.42;100.00
23417;BME280;11881;42.432;25.632;2022-11-13T03:53:21;100771.06;;;12.49;100.00
23417;BME280;11881;42.432;25.632;2022-11-13T03:55:47;100772.06;;;12.48;100.00
23417;BME280;11881;42.432;25.632;2022-11-13T03:58:12;100765.59;;;12.50;100.00
23417;BME280;11881;42.432;25.632;2022-11-13T04:00:39;100759.28;;;12.51;100.00
23417;BME280;11881;42.432;25.632;2022-11-13T04:03:05;100767.22;;;12.53;100.00
23417;BME280;11881;42.432;25.632;2022-11-13T04:05:31;100761.75;;;12.55;100.00
23417;BME280;11881;42.432;25.632;2022-11-13T04:07:56;100767.72;;;12.58;100.00
23417;BME280;11881;42.432;25.632;2022-11-13T04:10:21;100769.66;;;12.56;100.00
23417;BME280;11881;42.432;25.632;2022-11-13T04:12:47;100762.34;;;12.47;100.00
23417;BME280;11881;42.432;25.632;2022-11-13T04:15:12;100759.75;;;12.45;100.00
23417;BME280;11881;42.432;25.632;2022-11-13T04:17:38;100762.41;;;12.45;100.00
23417;BME280;11881;42.432;25.632;2022-11-13T04:20:03;100758.16;;;12.43;100.00
23417;BME280;11881;42.432;25.632;2022-11-13T04:22:29;100761.13;;;12.51;100.00
23417;BME280;11881;42.432;25.632;2022-11-13T04:24:54;100755.44;;;12.56;100.00
23417;BME280;11881;42.432;25.632;2022-11-13T04:27:20;100752.03;;;12.54;100.00
23417;BME280;11881;42.432;25.632;2022-11-13T04:29:45;100753.09;;;12.51;100.00
23417;BME280;11881;42.432;25.632;2022-11-13T04:32:10;100754.44;;;12.57;100.00
23417;BME280;11881;42.432;25.632;2022-11-13T04:34:36;100759.06;;;12.55;100.00
23417;BME280;11881;42.432;25.632;2022-11-13T04:37:01;100754.06;;;12.50;100.00
23417;BME280;11881;42.432;25.632;2022-11-13T04:39:27;100756.75;;;12.50;100.00
23417;BME280;11881;42.432;25.632;2022-11-13T04:41:52;100755.75;;;12.51;100.00
23417;BME280;11881;42.432;25.632;2022-11-13T04:44:36;100755.44;;;12.56;100.00
23417;BME280;11881;42.432;25.632;2022-11-13T04:47:02;100764.94;;;12.60;100.00
23417;BME280;11881;42.432;25.632;2022-11-13T04:49:27;100765.78;;;12.60;100.00
23417;BME280;11881;42.432;25.632;2022-11-13T04:51:53;100775.97;;;12.55;100.00
23417;BME280;11881;42.432;25.632;2022-11-13T04:54:18;100767.81;;;12.57;100.00
23417;BME280;11881;42.432;25.632;2022-11-13T04:56:44;100767.72;;;12.58;100.00
23417;BME280;11881;42.432;25.632;2022-11-13T04:59:09;100770.28;;;12.60;100.00
23417;BME280;11881;42.432;25.632;2022-11-13T05:01:35;100768.78;;;12.56;100.00
23417;BME280;11881;42.432;25.632;2022-11-13T05:04:01;100776.47;;;12.60;100.00
23417;BME280;11881;42.432;25.632;2022-11-13T05:06:26;100776.00;;;12.66;100.00
23417;BME280;11881;42.432;25.632;2022-11-13T05:08:52;100780.16;;;12.70;100.00
23417;BME280;11881;42.432;25.632;2022-11-13T05:11:17;100783.78;;;12.69;100.00
23417;BME280;11881;42.432;25.632;2022-11-13T05:13:43;100781.03;;;12.71;100.00
23417;BME280;11881;42.432;25.632;2022-11-13T05:16:11;100780.00;;;12.61;100.00
23417;BME280;11881;42.432;25.632;2022-11-13T05:18:37;100780.34;;;12.56;100.00
23417;BME280;11881;42.432;25.632;2022-11-13T05:21:06;100779.50;;;12.56;100.00
23417;BME280;11881;42.432;25.632;2022-11-13T05:23:32;100776.09;;;12.54;100.00
23417;BME280;11881;42.432;25.632;2022-11-13T05:26:24;100777.06;;;12.52;100.00
23417;BME280;11881;42.432;25.632;2022-11-13T05:28:51;100782.88;;;12.58;100.00
23417;BME280;11881;42.432;25.632;2022-11-13T05:31:17;100786.06;;;12.63;100.00
23417;BME280;11881;42.432;25.632;2022-11-13T05:33:43;100786.31;;;12.60;100.00
23417;BME280;11881;42.432;25.632;2022-11-13T05:36:12;100789.13;;;12.58;100.00
23417;BME280;11881;42.432;25.632;2022-11-13T05:38:38;100797.13;;;12.58;100.00
23417;BME280;11881;42.432;25.632;2022-11-13T05:41:16;100791.88;;;12.57;100.00
23417;BME280;11881;42.432;25.632;2022-11-13T05:43:42;100801.38;;;12.61;100.00
23417;BME280;11881;42.432;25.632;2022-11-13T05:46:13;100794.56;;;12.57;100.00
23417;BME280;11881;42.432;25.632;2022-11-13T05:48:39;100797.75;;;12.62;100.00
23417;BME280;11881;42.432;25.632;2022-11-13T05:51:11;100799.09;;;12.67;100.00
23417;BME280;11881;42.432;25.632;2022-11-13T05:53:37;100801.78;;;12.67;100.00
23417;BME280;11881;42.432;25.632;2022-11-13T05:56:09;100801.44;;;12.72;100.00
23417;BME280;11881;42.432;25.632;2022-11-13T05:58:35;100808.81;;;12.68;100.00
23417;BME280;11881;42.432;25.632;2022-11-13T06:03:37;100806.78;;;12.72;100.00
23417;BME280;11881;42.432;25.632;2022-11-13T06:06:05;100805.81;;;12.73;100.00
23417;BME280;11881;42.432;25.632;2022-11-13T06:08:31;100813.50;;;12.77;100.00
23417;BME280;11881;42.432;25.632;2022-11-13T06:11:00;100814.09;;;12.81;100.00
23417;BME280;11881;42.432;25.632;2022-11-13T06:13:26;100820.44;;;12.80;100.00
23417;BME280;11881;42.432;25.632;2022-11-13T06:15:53;100814.34;;;12.78;100.00
23417;BME280;11881;42.432;25.632;2022-11-13T06:18:22;100817.53;;;12.83;100.00
23417;BME280;11881;42.432;25.632;2022-11-13T06:20:48;100813.25;;;12.81;100.00
23417;BME280;11881;42.432;25.632;2022-11-13T06:23:13;100818.09;;;12.75;100.00
23417;BME280;11881;42.432;25.632;2022-11-13T06:25:39;100821.53;;;12.77;100.00
23417;BME280;11881;42.432;25.632;2022-11-13T06:28:04;100827.59;;;12.79;100.00
23417;BME280;11881;42.432;25.632;2022-11-13T06:30:29;100831.03;;;12.82;100.00
23417;BME280;11881;42.432;25.632;2022-11-13T06:32:55;100825.25;;;12.75;100.00
23417;BME280;11881;42.432;25.632;2022-11-13T06:35:20;100822.50;;;12.76;100.00
23417;BME280;11881;42.432;25.632;2022-11-13T06:37:46;100824.81;;;12.81;100.00
23417;BME280;11881;42.432;25.632;2022-11-13T06:40:12;100814.75;;;12.85;100.00
23417;BME280;11881;42.432;25.632;2022-11-13T06:42:38;100820.72;;;12.88;100.00
23417;BME280;11881;42.432;25.632;2022-11-13T06:45:03;100827.53;;;12.92;100.00
23417;BME280;11881;42.432;25.632;2022-11-13T06:47:29;100814.16;;;12.92;100.00
23417;BME280;11881;42.432;25.632;2022-11-13T06:49:54;100819.63;;;12.91;100.00
23417;BME280;11881;42.432;25.632;2022-11-13T06:52:20;100816.47;;;12.97;100.00
23417;BME280;11881;42.432;25.632;2022-11-13T06:54:45;100817.97;;;13.01;100.00
23417;BME280;11881;42.432;25.632;2022-11-13T06:57:11;100813.59;;;13.00;100.00
23417;BME280;11881;42.432;25.632;2022-11-13T06:59:36;100819.16;;;12.97;100.00
23417;BME280;11881;42.432;25.632;2022-11-13T07:02:02;100818.56;;;12.93;100.00
23417;BME280;11881;42.432;25.632;2022-11-13T07:04:27;100817.47;;;12.96;100.00
23417;BME280;11881;42.432;25.632;2022-11-13T07:06:53;100815.63;;;12.96;100.00
23417;BME280;11881;42.432;25.632;2022-11-13T07:09:18;100809.81;;;13.02;100.00
23417;BME280;11881;42.432;25.632;2022-11-13T07:11:44;100819.06;;;13.10;100.00
23417;BME280;11881;42.432;25.632;2022-11-13T07:14:12;100813.63;;;13.11;100.00
23417;BME280;11881;42.432;25.632;2022-11-13T07:16:38;100817.16;;;13.12;100.00
23417;BME280;11881;42.432;25.632;2022-11-13T07:19:03;100816.19;;;13.13;100.00
23417;BME280;11881;42.432;25.632;2022-11-13T07:21:29;100816.81;;;13.16;100.00
23417;BME280;11881;42.432;25.632;2022-11-13T07:23:54;100813.16;;;13.17;100.00
23417;BME280;11881;42.432;25.632;2022-11-13T07:26:20;100808.94;;;13.26;100.00
23417;BME280;11881;42.432;25.632;2022-11-13T07:28:46;100807.38;;;13.35;100.00
23417;BME280;11881;42.432;25.632;2022-11-13T07:31:13;100815.31;;;13.47;100.00
23417;BME280;11881;42.432;25.632;2022-11-13T07:33:39;100809.22;;;13.56;100.00
23417;BME280;11881;42.432;25.632;2022-11-13T07:36:05;100808.97;;;13.60;100.00
23417;BME280;11881;42.432;25.632;2022-11-13T07:38:31;100811.31;;;13.64;100.00
23417;BME280;11881;42.432;25.632;2022-11-13T07:40:57;100807.88;;;13.62;100.00
23417;BME280;11881;42.432;25.632;2022-11-13T07:43:23;100808.38;;;13.67;100.00
23417;BME280;11881;42.432;25.632;2022-11-13T07:45:49;100798.28;;;13.71;100.00
23417;BME280;11881;42.432;25.632;2022-11-13T07:48:21;100812.03;;;13.77;100.00
23417;BME280;11881;42.432;25.632;2022-11-13T07:50:46;100796.44;;;13.82;100.00
23417;BME280;11881;42.432;25.632;2022-11-13T07:53:12;100802.41;;;13.86;100.00
23417;BME280;11881;42.432;25.632;2022-11-13T07:55:38;100797.78;;;13.88;100.00
23417;BME280;11881;42.432;25.632;2022-11-13T07:58:04;100794.84;;;13.91;100.00
23417;BME280;11881;42.432;25.632;2022-11-13T08:00:31;100795.22;;;13.98;100.00
23417;BME280;11881;42.432;25.632;2022-11-13T08:02:58;100805.94;;;13.98;100.00
23417;BME280;11881;42.432;25.632;2022-11-13T08:05:29;100801.16;;;14.01;100.00
23417;BME280;11881;42.432;25.632;2022-11-13T08:07:54;100796.44;;;14.05;100.00
23417;BME280;11881;42.432;25.632;2022-11-13T08:10:20;100793.97;;;14.13;100.00
23417;BME280;11881;42.432;25.632;2022-11-13T08:12:46;100799.59;;;14.10;100.00
23417;BME280;11881;42.432;25.632;2022-11-13T08:15:12;100794.81;;;14.14;100.00
23417;BME280;11881;42.432;25.632;2022-11-13T08:17:37;100794.81;;;14.14;100.00
23417;BME280;11881;42.432;25.632;2022-11-13T08:20:04;100795.16;;;14.20;100.00
23417;BME280;11881;42.432;25.632;2022-11-13T08:22:29;100794.78;;;14.25;100.00
23417;BME280;11881;42.432;25.632;2022-11-13T08:24:55;100797.09;;;14.29;100.00
23417;BME280;11881;42.432;25.632;2022-11-13T08:27:21;100805.88;;;14.31;100.00
23417;BME280;11881;42.432;25.632;2022-11-13T08:29:48;100796.97;;;14.31;100.00
23417;BME280;11881;42.432;25.632;2022-11-13T08:32:14;100802.47;;;14.29;100.00
23417;BME280;11881;42.432;25.632;2022-11-13T08:34:40;100803.09;;;14.22;100.00
23417;BME280;11881;42.432;25.632;2022-11-13T08:37:05;100795.28;;;14.30;100.00
23417;BME280;11881;42.432;25.632;2022-11-13T08:39:31;100798.44;;;14.35;100.00
23417;BME280;11881;42.432;25.632;2022-11-13T08:41:56;100794.25;;;14.42;100.00
23417;BME280;11881;42.432;25.632;2022-11-13T08:44:21;100792.56;;;14.41;100.00
23417;BME280;11881;42.432;25.632;2022-11-13T08:46:47;100796.00;;;14.32;100.00
23417;BME280;11881;42.432;25.632;2022-11-13T08:49:13;100790.34;;;14.46;100.00
23417;BME280;11881;42.432;25.632;2022-11-13T08:51:38;100795.84;;;14.45;100.00
23417;BME280;11881;42.432;25.632;2022-11-13T08:54:04;100803.06;;;14.44;100.00
23417;BME280;11881;42.432;25.632;2022-11-13T08:56:29;100794.88;;;14.46;100.00
23417;BME280;11881;42.432;25.632;2022-11-13T08:58:55;100793.19;;;14.45;100.00
23417;BME280;11881;42.432;25.632;2022-11-13T09:01:20;100793.19;;;14.45;100.00
23417;BME280;11881;42.432;25.632;2022-11-13T09:03:50;100783.81;;;14.39;100.00
23417;BME280;11881;42.432;25.632;2022-11-13T09:06:15;100781.19;;;14.60;100.00
23417;BME280;11881;42.432;25.632;2022-11-13T09:08:41;100781.09;;;14.61;100.00
23417;BME280;11881;42.432;25.632;2022-11-13T09:11:06;100775.59;;;14.63;100.00
23417;BME280;11881;42.432;25.632;2022-11-13T09:13:32;100773.28;;;14.58;100.00
23417;BME280;11881;42.432;25.632;2022-11-13T09:15:59;100769.56;;;14.71;100.00
23417;BME280;11881;42.432;25.632;2022-11-13T09:18:25;100768.91;;;14.78;100.00
23417;BME280;11881;42.432;25.632;2022-11-13T09:20:51;100760.94;;;14.88;100.00
23417;BME280;11881;42.432;25.632;2022-11-13T09:23:16;100760.81;;;14.89;100.00
23417;BME280;11881;42.432;25.632;2022-11-13T09:25:41;100762.53;;;14.90;100.00
23417;BME280;11881;42.432;25.632;2022-11-13T09:28:08;100754.28;;;15.03;100.00
23417;BME280;11881;42.432;25.632;2022-11-13T09:30:37;100756.16;;;15.12;100.00
23417;BME280;11881;42.432;25.632;2022-11-13T09:33:02;100754.97;;;15.05;100.00
23417;BME280;11881;42.432;25.632;2022-11-13T09:35:29;100754.53;;;15.00;100.00
23417;BME280;11881;42.432;25.632;2022-11-13T09:38:11;100750.22;;;15.09;100.00
23417;BME280;11881;42.432;25.632;2022-11-13T09:43:31;100744.56;;;15.12;100.00
23417;BME280;11881;42.432;25.632;2022-11-13T09:46:10;100748.09;;;15.33;100.00
23417;BME280;11881;42.432;25.632;2022-11-13T09:48:43;100737.03;;;15.57;100.00
23417;BME280;11881;42.432;25.632;2022-11-13T09:51:23;100735.59;;;15.84;100.00
23417;BME280;11881;42.432;25.632;2022-11-13T09:53:50;100734.09;;;16.10;100.00
23417;BME280;11881;42.432;25.632;2022-11-13T09:59:21;100717.84;;;16.50;100.00
23417;BME280;11881;42.432;25.632;2022-11-13T10:05:05;100708.66;;;16.82;100.00
23417;BME280;11881;42.432;25.632;2022-11-13T10:10:35;100714.28;;;17.08;99.37
23417;BME280;11881;42.432;25.632;2022-11-13T10:12:57;100704.78;;;17.04;95.68
23417;BME280;11881;42.432;25.632;2022-11-13T10:15:25;100714.41;;;17.16;95.90
23417;BME280;11881;42.432;25.632;2022-11-13T10:17:58;100711.00;;;17.14;95.22
23417;BME280;11881;42.432;25.632;2022-11-13T10:20:39;100705.50;;;17.06;96.75
23417;BME280;11881;42.432;25.632;2022-11-13T10:23:11;100702.16;;;17.22;96.51
23417;BME280;11881;42.432;25.632;2022-11-13T10:25:39;100698.53;;;17.13;96.95
23417;BME280;11881;42.432;25.632;2022-11-13T10:28:20;100694.63;;;16.88;95.00
23417;BME280;11881;42.432;25.632;2022-11-13T10:30:49;100693.22;;;16.74;95.75
23417;BME280;11881;42.432;25.632;2022-11-13T10:33:17;100687.56;;;16.78;94.84
23417;BME280;11881;42.432;25.632;2022-11-13T10:38:45;100675.22;;;16.85;97.09
23417;BME280;11881;42.432;25.632;2022-11-13T10:41:17;100677.63;;;16.88;97.76
23417;BME280;11881;42.432;25.632;2022-11-13T10:46:39;100668.16;;;17.21;100.00
23417;BME280;11881;42.432;25.632;2022-11-13T10:49:25;100662.88;;;17.29;98.81
23417;BME280;11881;42.432;25.632;2022-11-13T10:51:55;100661.19;;;17.28;98.86
23417;BME280;11881;42.432;25.632;2022-11-13T10:54:30;100646.72;;;17.29;100.00
23417;BME280;11881;42.432;25.632;2022-11-13T10:57:32;100650.97;;;17.59;100.00
23417;BME280;11881;42.432;25.632;2022-11-13T10:59:59;100642.34;;;17.28;100.00
23417;BME280;11881;42.432;25.632;2022-11-13T11:02:27;100645.38;;;17.43;99.40
23417;BME280;11881;42.432;25.632;2022-11-13T11:05:14;100644.47;;;17.24;98.73
23417;BME280;11881;42.432;25.632;2022-11-13T11:07:40;100636.88;;;17.38;97.67
23417;BME280;11881;42.432;25.632;2022-11-13T11:10:29;100636.09;;;17.83;100.00
23417;BME280;11881;42.432;25.632;2022-11-13T11:13:00;100628.56;;;18.04;98.72
23417;BME280;11881;42.432;25.632;2022-11-13T11:15:48;100630.09;;;17.89;99.28
23417;BME280;11881;42.432;25.632;2022-11-13T11:18:29;100623.84;;;17.61;97.94
23417;BME280;11881;42.432;25.632;2022-11-13T11:20:58;100622.22;;;17.77;97.97
23417;BME280;11881;42.432;25.632;2022-11-13T11:26:00;100612.00;;;17.26;97.08
23417;BME280;11881;42.432;25.632;2022-11-13T11:28:35;100608.38;;;17.17;99.15
23417;BME280;11881;42.432;25.632;2022-11-13T11:34:39;100602.06;;;16.99;99.91
23417;BME280;11881;42.432;25.632;2022-11-13T11:37:26;100590.91;;;16.94;100.00
23417;BME280;11881;42.432;25.632;2022-11-13T11:40:15;100593.28;;;16.97;99.70
23417;BME280;11881;42.432;25.632;2022-11-13T11:42:49;100586.59;;;17.01;98.53
23417;BME280;11881;42.432;25.632;2022-11-13T11:47:49;100587.00;;;16.59;99.72
23417;BME280;11881;42.432;25.632;2022-11-13T11:50:28;100589.13;;;16.65;100.00
23417;BME280;11881;42.432;25.632;2022-11-13T12:01:06;100570.13;;;16.77;95.39
23417;BME280;11881;42.432;25.632;2022-11-13T12:11:37;100570.53;;;16.82;96.14
23417;BME280;11881;42.432;25.632;2022-11-13T12:22:35;100563.81;;;16.39;96.44
23417;BME280;11881;42.432;25.632;2022-11-13T12:28:03;100558.75;;;16.26;96.60
23417;BME280;11881;42.432;25.632;2022-11-13T12:36:03;100557.75;;;16.17;95.73
23417;BME280;11881;42.432;25.632;2022-11-13T12:38:52;100552.38;;;16.17;95.20
23417;BME280;11881;42.432;25.632;2022-11-13T12:41:44;100548.25;;;16.23;96.20
23417;BME280;11881;42.432;25.632;2022-11-13T12:44:21;100552.81;;;16.22;96.03
23417;BME280;11881;42.432;25.632;2022-11-13T12:46:48;100549.69;;;16.27;95.03
23417;BME280;11881;42.432;25.632;2022-11-13T12:52:03;100531.28;;;16.32;98.27
23417;BME280;11881;42.432;25.632;2022-11-13T12:54:31;100540.06;;;16.25;98.79
23417;BME280;11881;42.432;25.632;2022-11-13T12:57:23;100544.47;;;16.26;96.29
23417;BME280;11881;42.432;25.632;2022-11-13T12:59:54;100540.06;;;16.25;95.29
23417;BME280;11881;42.432;25.632;2022-11-13T13:02:36;100541.94;;;16.24;95.09
23417;BME280;11881;42.432;25.632;2022-11-13T13:16:10;100531.91;;;15.87;97.86
23417;BME280;11881;42.432;25.632;2022-11-13T13:18:38;100538.00;;;15.80;97.58
23417;BME280;11881;42.432;25.632;2022-11-13T13:21:15;100534.88;;;15.84;98.18
23417;BME280;11881;42.432;25.632;2022-11-13T13:23:47;100537.84;;;15.81;99.01
23417;BME280;11881;42.432;25.632;2022-11-13T13:28:52;100546.88;;;15.70;97.57
23417;BME280;11881;42.432;25.632;2022-11-13T13:36:57;100535.47;;;15.78;97.22
23417;BME280;11881;42.432;25.632;2022-11-13T13:39:38;100538.25;;;15.77;97.54
23417;BME280;11881;42.432;25.632;2022-11-13T13:42:17;100534.88;;;15.75;98.27
23417;BME280;11881;42.432;25.632;2022-11-13T13:47:51;100529.06;;;15.69;99.44
23417;BME280;11881;42.432;25.632;2022-11-13T13:50:24;100541.50;;;15.70;99.67
23417;BME280;11881;42.432;25.632;2022-11-13T13:52:50;100542.25;;;15.73;98.66
23417;BME280;11881;42.432;25.632;2022-11-13T13:55:21;100536.13;;;15.70;100.00
23417;BME280;11881;42.432;25.632;2022-11-13T13:57:50;100542.34;;;15.61;100.00
23417;BME280;11881;42.432;25.632;2022-11-13T14:00:18;100536.38;;;15.58;100.00
23417;BME280;11881;42.432;25.632;2022-11-13T14:02:46;100540.34;;;15.54;100.00
23417;BME280;11881;42.432;25.632;2022-11-13T14:05:28;100536.81;;;15.43;100.00
23417;BME280;11881;42.432;25.632;2022-11-13T14:07:54;100535.22;;;15.41;100.00
23417;BME280;11881;42.432;25.632;2022-11-13T14:10:25;100533.28;;;15.43;100.00